Time;durP1;ratioP1;P1;durP2;ratioP2;P2;SDS_P1;SDS_P2;PMS_P1;PMS_P2;Temp;Humidity;BMP_temperature;BMP_pressure;BME280_temperature;BME280_humidity;BME280_pressure;Samples;Min_cycle;Max_cycle;Signal;HPM_P1;HPM_P2
2021/07/09 00:01:38;;;;;;;;;6.50;6.00;;;;;20.13;54.51;101561.22;5075535;28;45620;-80
2021/07/09 00:04:03;;;;;;;;;4.75;4.75;;;;;20.04;54.66;101547.97;5057102;28;47483;-80
2021/07/09 00:06:29;;;;;;;;;6.75;5.00;;;;;19.83;54.45;101516.28;5057122;28;46087;-80
2021/07/09 00:09:01;;;;;;;;;5.00;5.00;;;;;19.77;54.81;101502.72;5075689;28;45541;-79
2021/07/09 00:11:26;;;;;;;;;4.50;4.50;;;;;19.68;54.88;101501.78;5075969;28;45436;-79
2021/07/09 00:13:52;;;;;;;;;6.25;5.00;;;;;19.71;55.14;101504.16;5056984;28;48624;-79
2021/07/09 00:16:19;;;;;;;;;6.25;5.00;;;;;20.01;55.54;101559.75;5056927;28;48355;-79
2021/07/09 00:18:46;;;;;;;;;5.00;5.00;;;;;20.00;55.39;101563.41;5075533;28;45508;-80
2021/07/09 00:21:12;;;;;;;;;4.75;4.75;;;;;19.83;55.15;101537.56;5075151;28;45663;-78
2021/07/09 00:23:39;;;;;;;;;6.25;5.25;;;;;19.95;54.84;101555.00;5074840;28;45592;-78
2021/07/09 00:26:04;;;;;;;;;6.00;5.00;;;;;19.91;55.44;101553.63;5074926;28;46450;-79
2021/07/09 00:28:30;;;;;;;;;5.75;5.75;;;;;19.83;55.66;101531.41;5075022;28;45752;-79
2021/07/09 00:30:55;;;;;;;;;6.25;5.50;;;;;19.81;56.01;101536.03;5075049;28;45587;-79
2021/07/09 00:33:21;;;;;;;;;4.75;4.25;;;;;19.64;55.60;101511.06;5075078;28;45645;-79
2021/07/09 00:35:46;;;;;;;;;5.50;5.00;;;;;19.81;55.83;101544.84;5074803;28;46229;-78
2021/07/09 00:38:11;;;;;;;;;6.25;5.25;;;;;19.87;55.86;101562.88;5075060;28;45669;-78
2021/07/09 00:40:38;;;;;;;;;7.25;5.50;;;;;19.83;55.73;101561.50;5075309;28;45778;-79
2021/07/09 00:43:03;;;;;;;;;5.25;5.25;;;;;19.70;55.85;101545.03;5074889;28;46596;-79
2021/07/09 00:45:29;;;;;;;;;7.25;7.00;;;;;19.53;55.61;101521.84;5074821;28;46026;-78
2021/07/09 00:47:55;;;;;;;;;8.25;6.75;;;;;19.63;55.67;101542.13;5074962;28;45528;-80
2021/07/09 00:50:20;;;;;;;;;6.50;6.50;;;;;19.74;55.75;101553.56;5073989;28;45648;-78
2021/07/09 00:52:46;;;;;;;;;5.75;5.75;;;;;19.77;56.09;101566.56;5074896;28;46396;-79
2021/07/09 00:55:12;;;;;;;;;9.00;6.50;;;;;19.76;56.19;101573.69;5056517;28;48646;-78
2021/07/09 00:57:41;;;;;;;;;7.50;6.50;;;;;19.69;55.83;101556.66;5074899;28;45651;-79
2021/07/09 01:00:10;;;;;;;;;7.00;5.50;;;;;19.57;55.96;101549.81;5074807;28;45561;-79
2021/07/09 01:05:57;;;;;;;;;6.00;6.00;;;;;19.52;56.60;101542.28;5074347;28;45959;-79
2021/07/09 01:08:22;;;;;;;;;7.00;6.25;;;;;19.65;56.78;101587.16;5075036;28;45501;-79
2021/07/09 01:10:48;;;;;;;;;7.00;7.00;;;;;19.53;56.37;101567.06;5075017;28;45696;-78
2021/07/09 01:13:14;;;;;;;;;8.00;7.00;;;;;19.58;56.60;101572.78;5074442;28;46694;-79
2021/07/09 01:15:40;;;;;;;;;6.25;5.75;;;;;19.55;56.68;101578.38;5074832;28;46693;-78
2021/07/09 01:21:27;;;;;;;;;6.50;6.00;;;;;19.14;57.02;101515.75;5076431;28;45646;-78
2021/07/09 01:23:59;;;;;;;;;5.50;5.50;;;;;19.32;56.69;101543.28;5076838;28;45725;-77
2021/07/09 01:26:27;;;;;;;;;7.50;6.75;;;;;19.48;56.75;101577.28;5076859;28;46294;-79
2021/07/09 01:28:52;;;;;;;;;7.00;6.00;;;;;19.38;56.98;101566.59;5078500;28;45832;-77
2021/07/09 01:31:18;;;;;;;;;8.00;6.00;;;;;19.34;56.84;101572.34;5078186;28;45620;-78
2021/07/09 01:33:43;;;;;;;;;9.00;9.00;;;;;19.19;56.95;101554.19;5077738;28;45473;-77
2021/07/09 01:36:09;;;;;;;;;8.25;6.75;;;;;19.23;57.21;101550.28;5080304;28;45841;-79
2021/07/09 01:38:34;;;;;;;;;7.25;6.25;;;;;19.26;56.99;101551.81;5079391;28;45523;-78
2021/07/09 01:41:00;;;;;;;;;7.00;6.25;;;;;18.91;56.77;101486.00;5078218;28;45532;-79
2021/07/09 01:43:26;;;;;;;;;7.00;6.25;;;;;18.89;56.95;101479.16;5077784;28;46362;-77
2021/07/09 01:45:54;;;;;;;;;8.50;7.25;;;;;19.28;56.93;101548.03;5078100;28;45698;-79
2021/07/09 01:51:41;;;;;;;;;8.50;8.00;;;;;19.43;57.00;101568.88;5077685;28;45680;-77
2021/07/09 01:54:07;;;;;;;;;7.25;6.25;;;;;19.41;57.35;101579.63;5059343;28;45711;-76
2021/07/09 01:56:32;;;;;;;;;7.50;6.75;;;;;19.39;57.00;101568.28;5077807;28;45725;-79
2021/07/09 01:58:58;;;;;;;;;8.75;7.75;;;;;19.02;57.01;101511.56;5077800;28;45677;-78
2021/07/09 02:01:23;;;;;;;;;10.25;7.75;;;;;19.35;57.49;101569.56;5077342;28;45663;-78
2021/07/09 02:03:48;;;;;;;;;8.25;8.00;;;;;19.23;57.20;101546.78;5059039;28;47493;-78
2021/07/09 02:06:14;;;;;;;;;9.00;8.50;;;;;19.33;57.29;101573.31;5077546;28;46453;-79
2021/07/09 02:08:40;;;;;;;;;7.25;7.25;;;;;19.31;57.40;101573.50;5077610;28;45600;-78
2021/07/09 02:11:05;;;;;;;;;7.50;7.50;;;;;18.98;57.38;101519.00;5077558;28;45709;-78
2021/07/09 02:13:30;;;;;;;;;7.50;6.75;;;;;19.20;57.66;101549.72;5059128;28;46388;-78
2021/07/09 02:15:56;;;;;;;;;8.50;6.50;;;;;19.11;57.93;101543.44;5077391;28;45721;-78
2021/07/09 02:21:47;;;;;;;;;9.50;8.25;;;;;19.22;57.98;101556.56;5077066;28;45595;-78
2021/07/09 02:24:15;;;;;;;;;7.75;7.75;;;;;19.23;57.89;101552.94;5077237;28;46764;-78
2021/07/09 02:26:40;;;;;;;;;8.00;7.00;;;;;19.21;57.82;101554.06;5077069;28;47031;-79
2021/07/09 02:29:05;;;;;;;;;8.00;7.25;;;;;19.16;58.12;101549.16;5076803;28;45686;-78
2021/07/09 02:31:31;;;;;;;;;8.00;7.50;;;;;19.21;57.89;101560.22;5077126;28;45439;-79
2021/07/09 02:33:56;;;;;;;;;7.50;7.00;;;;;19.09;58.15;101540.09;5076976;28;46422;-78
2021/07/09 02:36:21;;;;;;;;;7.00;6.75;;;;;19.15;58.35;101563.44;5076470;28;46130;-78
2021/07/09 02:38:47;;;;;;;;;8.00;7.00;;;;;19.14;57.91;101555.59;5077133;28;45706;-79
2021/07/09 02:41:12;;;;;;;;;7.00;6.50;;;;;19.10;58.47;101557.72;5076955;28;45579;-78
2021/07/09 02:43:38;;;;;;;;;7.50;6.75;;;;;19.04;58.80;101547.66;5076825;28;45655;-79
2021/07/09 02:46:03;;;;;;;;;8.50;8.25;;;;;19.08;58.41;101559.66;5076606;28;46126;-78
2021/07/09 02:51:51;;;;;;;;;10.00;7.75;;;;;18.95;58.83;101548.47;5076710;28;45536;-78
2021/07/09 02:54:16;;;;;;;;;8.50;8.00;;;;;18.97;58.83;101551.84;5076722;28;45756;-76
2021/07/09 02:56:42;;;;;;;;;7.25;6.75;;;;;18.97;58.54;101551.00;5076651;28;46336;-79
2021/07/09 02:59:07;;;;;;;;;7.00;6.75;;;;;18.86;58.80;101531.56;5076641;28;45621;-77
2021/07/09 03:01:33;;;;;;;;;9.00;7.25;;;;;18.96;58.70;101544.00;5076672;28;45577;-78
2021/07/09 03:07:20;;;;;;;;;9.00;8.00;;;;;18.79;58.51;101527.78;5076305;28;45521;-78
2021/07/09 03:09:46;;;;;;;;;11.25;7.75;;;;;18.89;58.86;101543.75;5076486;28;45715;-79
2021/07/09 03:12:11;;;;;;;;;10.25;9.00;;;;;18.87;59.05;101543.03;5076820;28;45667;-76
2021/07/09 03:14:37;;;;;;;;;5.50;5.50;;;;;18.83;58.69;101537.16;5076450;28;46431;-78
2021/07/09 03:17:02;;;;;;;;;9.25;8.25;;;;;18.69;59.06;101511.00;5076490;28;46361;-78
2021/07/09 03:19:28;;;;;;;;;8.00;8.00;;;;;18.79;58.84;101522.47;5076419;28;45702;-78
2021/07/09 03:21:53;;;;;;;;;8.75;8.00;;;;;18.68;59.21;101493.41;5076292;28;45537;-78
2021/07/09 03:24:19;;;;;;;;;10.00;9.00;;;;;18.74;58.69;101500.81;5076368;28;45752;-76
2021/07/09 03:26:45;;;;;;;;;9.00;7.75;;;;;18.78;58.80;101510.19;5076392;28;45679;-78
2021/07/09 03:29:10;;;;;;;;;7.75;7.75;;;;;18.97;58.90;101540.38;5076162;28;45687;-78
2021/07/09 03:31:36;;;;;;;;;8.25;6.75;;;;;18.98;58.59;101539.41;5078981;28;45490;-77
2021/07/09 03:37:50;;;;;;;;;9.25;7.75;;;;;18.96;58.67;101520.94;5074879;28;46314;-77
2021/07/09 03:40:15;;;;;;;;;8.25;8.00;;;;;18.98;58.98;101540.25;5081484;28;45504;-79
2021/07/09 03:42:41;;;;;;;;;8.00;7.00;;;;;18.95;58.60;101531.72;5078487;28;45719;-79
2021/07/09 03:45:07;;;;;;;;;9.00;7.25;;;;;18.91;59.32;101536.44;5076304;28;45570;-79
2021/07/09 03:47:32;;;;;;;;;8.25;7.50;;;;;18.84;59.40;101530.84;5075890;28;45895;-78
2021/07/09 03:49:57;;;;;;;;;7.75;7.25;;;;;18.82;59.55;101535.50;5075817;28;45650;-78
2021/07/09 03:52:23;;;;;;;;;9.25;9.00;;;;;18.82;59.24;101539.97;5074233;28;45878;-78
2021/07/09 03:54:48;;;;;;;;;8.75;8.00;;;;;18.69;59.32;101523.44;5075966;28;45555;-78
2021/07/09 03:57:14;;;;;;;;;9.50;9.50;;;;;18.77;59.51;101537.72;5074718;28;45721;-78
2021/07/09 03:59:39;;;;;;;;;8.00;8.00;;;;;18.72;59.53;101528.50;5075822;28;45727;-78
2021/07/09 04:02:05;;;;;;;;;10.25;10.00;;;;;18.66;59.59;101519.28;5075640;28;45498;-79
2021/07/09 04:07:52;;;;;;;;;7.75;7.75;;;;;18.65;59.46;101522.91;5075378;28;45738;-77
2021/07/09 04:10:17;;;;;;;;;9.00;9.00;;;;;18.73;59.64;101538.94;5075462;28;45667;-77
2021/07/09 04:12:43;;;;;;;;;10.00;9.00;;;;;18.61;59.84;101510.03;5075829;28;45675;-76
2021/07/09 04:15:09;;;;;;;;;9.50;9.00;;;;;18.72;59.42;101528.50;5075487;28;46566;-79
2021/07/09 04:17:34;;;;;;;;;8.50;8.00;;;;;18.73;59.76;101532.84;5075392;28;47384;-79
2021/07/09 04:20:00;;;;;;;;;11.00;10.25;;;;;18.52;59.95;101492.25;5074973;28;45568;-78
2021/07/09 04:22:25;;;;;;;;;8.50;7.75;;;;;18.75;59.45;101523.72;5075388;28;45575;-78
2021/07/09 04:24:51;;;;;;;;;8.00;7.50;;;;;18.77;59.48;101527.09;5075350;28;45616;-78
2021/07/09 04:27:16;;;;;;;;;8.00;6.75;;;;;18.80;59.90;101534.78;5075324;28;46301;-78
2021/07/09 04:29:41;;;;;;;;;9.75;8.75;;;;;18.80;59.51;101539.25;5074551;28;45615;-78
2021/07/09 04:32:07;;;;;;;;;10.00;9.50;;;;;18.86;59.58;101547.50;5075133;28;45541;-79
2021/07/09 04:37:54;;;;;;;;;9.25;8.50;;;;;18.80;59.52;101532.13;5069096;28;45663;-78
2021/07/09 04:40:19;;;;;;;;;10.75;9.75;;;;;18.90;59.67;101547.22;5074602;28;45605;-79
2021/07/09 04:42:45;;;;;;;;;11.00;10.50;;;;;18.91;59.59;101539.09;5075243;28;45881;-79
2021/07/09 04:45:11;;;;;;;;;9.50;8.50;;;;;18.84;59.42;101536.16;5074937;28;45448;-79
2021/07/09 04:47:36;;;;;;;;;9.50;9.00;;;;;18.95;59.46;101552.97;5075032;28;45659;-79
2021/07/09 04:53:23;;;;;;;;;16.50;14.00;;;;;18.97;59.96;101553.66;5074680;28;45513;-77
2021/07/09 04:55:49;;;;;;;;;13.00;12.25;;;;;18.99;59.29;101549.88;5075152;28;45862;-79
2021/07/09 04:58:14;;;;;;;;;21.50;19.75;;;;;19.03;59.65;101555.75;5075144;28;45616;-77
2021/07/09 05:00:40;;;;;;;;;18.50;16.75;;;;;19.02;59.75;101546.09;5074564;28;45686;-79
2021/07/09 05:03:05;;;;;;;;;12.50;11.25;;;;;19.09;59.87;101548.06;5074740;28;45585;-80
2021/07/09 05:05:30;;;;;;;;;13.50;11.75;;;;;19.13;59.40;101554.75;5074795;28;46538;-79
2021/07/09 05:07:56;;;;;;;;;10.75;9.75;;;;;19.09;59.46;101542.75;5074627;28;45936;-78
2021/07/09 05:10:21;;;;;;;;;14.00;14.00;;;;;19.11;59.83;101547.94;5074574;28;45750;-78
2021/07/09 05:12:47;;;;;;;;;11.75;11.25;;;;;19.16;59.51;101546.50;5074599;28;45732;-79
2021/07/09 05:15:12;;;;;;;;;9.75;9.75;;;;;19.13;59.30;101538.81;5074772;28;46408;-76
2021/07/09 05:17:38;;;;;;;;;10.25;9.25;;;;;19.19;59.49;101551.53;5074764;28;46219;-78
2021/07/09 05:23:25;;;;;;;;;11.75;10.50;;;;;19.17;59.71;101560.63;5074427;28;45679;-78
2021/07/09 05:25:51;;;;;;;;;11.50;10.50;;;;;19.15;59.71;101558.13;5074383;28;45701;-77
2021/07/09 05:28:16;;;;;;;;;13.00;11.00;;;;;19.18;59.34;101560.50;5074435;28;46079;-77
2021/07/09 05:30:44;;;;;;;;;11.50;9.75;;;;;19.24;59.59;101565.25;5074751;28;45552;-78
2021/07/09 05:33:10;;;;;;;;;7.00;6.00;;;;;19.08;60.00;101540.22;5075415;28;45517;-78
2021/07/09 05:38:57;;;;;;;;;11.75;10.75;;;;;18.93;59.66;101515.91;5065347;28;45719;-78
2021/07/09 05:41:23;;;;;;;;;15.00;13.50;;;;;19.20;60.11;101560.34;5076684;28;45639;-78
2021/07/09 05:43:49;;;;;;;;;11.75;10.00;;;;;19.25;59.70;101569.59;5076688;28;45506;-78
2021/07/09 05:46:15;;;;;;;;;13.25;13.00;;;;;19.09;59.49;101542.75;5077643;28;45758;-78
2021/07/09 05:48:40;;;;;;;;;12.75;11.00;;;;;18.95;59.60;101511.28;5078227;28;45991;-77
2021/07/09 05:51:06;;;;;;;;;11.50;10.50;;;;;18.93;59.55;101512.41;5078159;28;45807;-79
2021/07/09 05:53:31;;;;;;;;;10.50;10.25;;;;;18.86;60.07;101496.19;5076370;28;45509;-78
2021/07/09 05:55:58;;;;;;;;;11.50;10.00;;;;;19.06;59.87;101537.69;5075991;28;45768;-78
2021/07/09 05:58:24;;;;;;;;;13.00;12.75;;;;;19.03;59.77;101529.19;5075605;28;46221;-78
2021/07/09 06:00:49;;;;;;;;;11.25;10.50;;;;;19.03;59.77;101515.91;5074660;28;45543;-78
2021/07/09 06:03:15;;;;;;;;;12.00;10.75;;;;;19.02;59.61;101520.38;5074346;28;45686;-79
2021/07/09 06:09:02;;;;;;;;;13.50;11.75;;;;;19.23;59.57;101531.69;5073920;28;45863;-76
2021/07/09 06:11:29;;;;;;;;;13.50;11.50;;;;;19.44;59.72;101560.72;5074132;28;45664;-81
2021/07/09 06:13:55;;;;;;;;;16.00;15.25;;;;;19.58;59.99;101580.75;5074306;28;45861;-78
2021/07/09 06:16:20;;;;;;;;;14.25;13.25;;;;;19.38;59.37;101528.59;5073706;28;46688;-78
2021/07/09 06:18:46;;;;;;;;;18.75;17.00;;;;;19.40;59.66;101527.44;5073884;28;45654;-78
2021/07/09 06:21:11;;;;;;;;;13.00;13.00;;;;;19.73;59.81;101571.34;5074252;28;45672;-81
2021/07/09 06:23:37;;;;;;;;;14.25;14.25;;;;;19.46;59.43;101524.25;5077545;28;45752;-78
2021/07/09 06:26:03;;;;;;;;;18.75;16.00;;;;;19.81;59.38;101576.75;5076983;28;47354;-80
2021/07/09 06:28:28;;;;;;;;;25.75;23.50;;;;;19.50;59.30;101522.13;5058664;28;48399;-79
2021/07/09 06:30:54;;;;;;;;;21.50;19.75;;;;;19.64;59.36;101546.47;5058862;28;45512;-80
2021/07/09 06:33:19;;;;;;;;;13.75;12.75;;;;;19.92;59.34;101587.22;5078076;28;45553;-80
2021/07/09 06:39:06;;;;;;;;;14.75;13.00;;;;;19.62;59.38;101532.47;5074795;28;46042;-80
2021/07/09 06:41:32;;;;;;;;;19.50;17.75;;;;;19.91;59.01;101582.91;5076389;28;45553;-79
2021/07/09 06:43:59;;;;;;;;;15.50;12.75;;;;;19.59;59.18;101530.09;5076464;28;45505;-79
2021/07/09 06:46:28;;;;;;;;;14.00;10.50;;;;;19.78;58.83;101563.75;5058111;28;48892;-80
2021/07/09 06:48:53;;;;;;;;;12.75;11.75;;;;;20.03;58.81;101597.66;5041772;28;46274;-77
2021/07/09 06:54:40;;;;;;;;;13.25;11.50;;;;;20.09;58.83;101610.41;5076608;28;45498;-80
2021/07/09 06:57:06;;;;;;;;;15.00;13.50;;;;;20.11;58.77;101608.44;5076601;28;45501;-79
2021/07/09 06:59:32;;;;;;;;;13.00;11.75;;;;;19.87;59.02;101557.56;5074955;28;47046;-80
2021/07/09 07:01:57;;;;;;;;;13.00;11.50;;;;;19.97;59.08;101571.66;5076263;28;45642;-79
2021/07/09 07:04:23;;;;;;;;;11.75;11.50;;;;;19.85;58.52;101545.41;5076391;28;46003;-78
2021/07/09 07:06:49;;;;;;;;;15.50;14.00;;;;;20.17;58.69;101601.69;5076445;28;45719;-78
2021/07/09 07:09:15;;;;;;;;;13.75;13.25;;;;;20.05;58.79;101573.59;5076737;28;45632;-79
2021/07/09 07:11:41;;;;;;;;;19.75;15.50;;;;;20.13;58.50;101583.50;5076691;28;45593;-79
2021/07/09 07:14:06;;;;;;;;;22.75;19.00;;;;;20.15;58.64;101577.03;5058100;28;45677;-79
2021/07/09 07:16:31;;;;;;;;;14.25;11.50;;;;;20.29;58.47;101594.38;5076349;28;46659;-78
2021/07/09 07:18:57;;;;;;;;;12.00;12.00;;;;;20.01;58.05;101546.44;5076255;28;45535;-80
2021/07/09 07:24:48;;;;;;;;;9.50;9.00;;;;;20.33;58.11;101593.94;5076332;28;45935;-80
2021/07/09 07:27:14;;;;;;;;;11.75;11.00;;;;;20.32;58.17;101584.28;5075774;28;45622;-78
2021/07/09 07:29:39;;;;;;;;;13.75;12.75;;;;;20.51;58.01;101604.66;5076051;28;46104;-79
2021/07/09 07:32:05;;;;;;;;;15.50;14.00;;;;;20.36;57.68;101577.66;5075128;28;45505;-80
2021/07/09 07:34:31;;;;;;;;;15.00;14.75;;;;;20.60;58.00;101611.72;5076271;28;45882;-79
2021/07/09 07:36:56;;;;;;;;;12.75;12.00;;;;;20.61;57.67;101599.25;5076190;28;46256;-79
2021/07/09 07:39:22;;;;;;;;;10.50;9.50;;;;;20.65;57.37;101601.47;5075942;28;45628;-79
2021/07/09 07:41:50;;;;;;;;;14.00;12.00;;;;;20.73;57.38;101609.53;5076388;28;45710;-80
2021/07/09 07:44:16;;;;;;;;;10.25;9.25;;;;;20.68;57.38;101590.50;5057908;28;45932;-78
2021/07/09 07:46:41;;;;;;;;;9.75;9.00;;;;;20.80;57.36;101604.44;5074809;28;47760;-79
2021/07/09 07:49:07;;;;;;;;;13.25;11.00;;;;;20.75;56.81;101585.41;5076555;28;45751;-79
2021/07/09 07:54:53;;;;;;;;;14.25;13.25;;;;;20.89;56.94;101608.88;5077252;28;45654;-78
2021/07/09 07:57:20;;;;;;;;;13.25;9.50;;;;;20.86;56.58;101599.34;5077219;28;46925;-80
2021/07/09 07:59:47;;;;;;;;;10.75;10.00;;;;;20.79;56.63;101582.28;5078095;28;46264;-78
2021/07/09 08:02:12;;;;;;;;;12.00;9.75;;;;;20.98;56.24;101613.31;5080199;28;45538;-78
2021/07/09 08:04:38;;;;;;;;;9.25;8.75;;;;;21.00;56.41;101605.97;5080522;28;45675;-81
2021/07/09 08:10:25;;;;;;;;;9.25;8.00;;;;;20.87;55.94;101577.06;5077874;28;45766;-79
2021/07/09 08:12:53;;;;;;;;;10.25;8.75;;;;;21.01;56.09;101589.00;5058526;28;45661;-76
2021/07/09 08:15:19;;;;;;;;;9.00;8.75;;;;;20.88;55.93;101569.91;5075810;28;45517;-78
2021/07/09 08:17:44;;;;;;;;;9.25;8.00;;;;;20.82;55.82;101555.38;5075668;28;46528;-81
2021/07/09 08:20:10;;;;;;;;;10.25;9.00;;;;;20.97;56.08;101573.47;5075278;28;46246;-80
2021/07/09 08:22:37;;;;;;;;;7.75;6.75;;;;;21.14;55.76;101594.81;5075388;28;45950;-78
2021/07/09 08:25:07;;;;;;;;;6.75;6.75;;;;;21.12;55.68;101574.59;5075588;28;45661;-79
2021/07/09 08:27:33;;;;;;;;;8.75;7.50;;;;;21.09;55.71;101569.59;5075043;28;45758;-81
2021/07/09 08:29:58;;;;;;;;;6.75;6.00;;;;;21.12;55.00;101569.28;5074573;28;45863;-81
2021/07/09 08:32:24;;;;;;;;;7.25;7.00;;;;;21.16;55.26;101576.84;5075337;28;45657;-81
2021/07/09 08:34:49;;;;;;;;;5.00;5.00;;;;;20.93;54.93;101533.81;5076168;28;45459;-79
2021/07/09 08:40:37;;;;;;;;;6.75;6.00;;;;;21.27;55.04;101570.41;5064098;28;45993;-81
2021/07/09 08:43:03;;;;;;;;;4.50;4.50;;;;;20.95;54.47;101521.16;5074911;28;45536;-80
2021/07/09 08:45:28;;;;;;;;;7.50;6.75;;;;;20.98;54.42;101529.84;5075299;28;45706;-81
2021/07/09 08:47:55;;;;;;;;;7.00;7.00;;;;;21.23;54.75;101555.72;5073336;28;48448;-80
2021/07/09 08:50:21;;;;;;;;;6.25;5.25;;;;;21.38;54.58;101572.84;5074674;28;46437;-80
2021/07/09 08:52:47;;;;;;;;;9.00;7.75;;;;;21.45;54.95;101584.56;5075194;28;45512;-80
2021/07/09 08:55:13;;;;;;;;;10.00;10.00;;;;;21.36;54.66;101553.50;5074109;28;45652;-79
2021/07/09 08:57:40;;;;;;;;;7.75;7.25;;;;;21.33;54.75;101548.47;5074961;28;45576;-79
2021/07/09 09:00:27;;;;;;;;;6.75;6.00;;;;;21.43;54.35;101556.41;5075038;28;46011;-80
2021/07/09 09:02:55;;;;;;;;;9.25;8.00;;;;;21.58;54.37;101577.00;5075122;28;45487;-81
2021/07/09 09:12:08;;;;;;;;;8.75;8.00;;;;;21.71;53.97;101576.56;5074556;28;45854;-80
2021/07/09 09:14:40;;;;;;;;;9.00;9.00;;;;;21.60;53.83;101551.00;5074839;28;45673;-79
2021/07/09 09:17:35;;;;;;;;;9.50;9.25;;;;;21.73;53.58;101570.09;5074813;28;45642;-79
2021/07/09 09:20:16;;;;;;;;;7.00;6.75;;;;;21.37;53.57;101512.53;5074094;28;46451;-79
2021/07/09 09:22:52;;;;;;;;;7.75;7.00;;;;;21.80;53.83;101569.47;5055694;28;47943;-80
2021/07/09 09:25:20;;;;;;;;;6.50;6.00;;;;;21.53;53.17;101528.63;5074471;28;45777;-81
2021/07/09 09:28:07;;;;;;;;;9.00;8.00;;;;;21.68;53.45;101550.22;5074390;28;45632;-80
2021/07/09 09:30:34;;;;;;;;;7.25;7.25;;;;;21.78;53.37;101567.78;5055946;28;47482;-81
2021/07/09 09:33:05;;;;;;;;;6.75;6.25;;;;;21.65;53.40;101554.03;5074426;28;46081;-80
2021/07/09 09:35:37;;;;;;;;;6.00;6.00;;;;;21.68;53.20;101551.06;5074290;28;45716;-79
2021/07/09 09:38:06;;;;;;;;;5.75;5.50;;;;;21.61;52.89;101536.66;5074434;28;45811;-79
2021/07/09 09:40:35;;;;;;;;;7.00;6.00;;;;;21.68;53.35;101545.72;5073937;28;46415;-80
2021/07/09 09:43:09;;;;;;;;;7.00;5.00;;;;;21.94;53.32;101576.88;5074202;28;46041;-80
2021/07/09 09:45:35;;;;;;;;;7.50;6.00;;;;;21.95;52.74;101570.56;5074185;28;45692;-79
2021/07/09 09:48:09;;;;;;;;;7.00;7.00;;;;;22.01;53.42;101572.59;5074075;28;45776;-79
2021/07/09 09:50:42;;;;;;;;;8.50;7.25;;;;;22.02;52.99;101564.44;5074274;28;45654;-79
2021/07/09 09:53:07;;;;;;;;;8.75;8.00;;;;;22.12;53.06;101567.84;5073714;28;46372;-78
2021/07/09 09:55:33;;;;;;;;;6.50;6.50;;;;;22.24;53.03;101581.69;5075265;28;45577;-78
2021/07/09 09:58:10;;;;;;;;;9.75;8.25;;;;;22.11;53.06;101544.78;5077949;28;45728;-79
2021/07/09 10:00:36;;;;;;;;;7.50;7.50;;;;;22.34;52.77;101578.94;5077642;28;45598;-78
2021/07/09 10:03:04;;;;;;;;;7.00;7.00;;;;;22.37;52.71;101568.75;5077972;28;45653;-79
2021/07/09 10:05:33;;;;;;;;;8.00;7.50;;;;;22.43;52.75;101568.09;5077772;28;45642;-78
2021/07/09 10:08:00;;;;;;;;;7.00;6.25;;;;;22.42;52.91;101565.59;5078920;28;45534;-84
2021/07/09 10:10:27;;;;;;;;;6.00;6.00;;;;;22.46;52.20;101565.09;5061549;28;47678;-82
2021/07/09 10:12:55;;;;;;;;;6.25;6.00;;;;;22.48;52.27;101562.25;5078004;28;45915;-79
2021/07/09 10:15:21;;;;;;;;;7.00;6.00;;;;;22.43;51.99;101548.56;5077461;28;45786;-77
2021/07/09 10:17:49;;;;;;;;;8.25;6.00;;;;;22.49;52.37;101564.78;5077606;28;45616;-78
2021/07/09 10:20:17;;;;;;;;;5.50;5.50;;;;;22.56;52.15;101563.09;5077566;28;46601;-78
2021/07/09 10:22:45;;;;;;;;;5.75;5.00;;;;;22.58;51.97;101566.47;5077531;28;45699;-78
2021/07/09 10:25:12;;;;;;;;;5.50;5.25;;;;;22.58;52.07;101557.63;5077689;28;45659;-78
2021/07/09 10:27:42;;;;;;;;;5.75;5.75;;;;;22.66;51.79;101560.31;5077779;28;45806;-79
2021/07/09 10:30:08;;;;;;;;;5.25;5.25;;;;;22.67;51.93;101562.00;5077562;28;46637;-80
2021/07/09 10:32:46;;;;;;;;;5.75;5.00;;;;;22.69;51.13;101551.97;5077531;28;45915;-79
2021/07/09 10:35:37;;;;;;;;;6.00;6.00;;;;;22.71;50.64;101567.84;5078478;28;45623;-78
2021/07/09 10:38:09;;;;;;;;;4.00;4.00;;;;;22.67;50.77;101559.31;5060633;28;45983;-76
2021/07/09 10:40:34;;;;;;;;;4.25;4.25;;;;;22.66;50.77;101563.00;5078559;28;46757;-79
2021/07/09 10:43:00;;;;;;;;;4.50;4.50;;;;;22.63;50.61;101559.78;5080813;28;45953;-78
2021/07/09 10:45:27;;;;;;;;;6.50;6.00;;;;;22.69;50.67;101551.97;5080061;28;45610;-79
2021/07/09 10:48:08;;;;;;;;;5.00;5.00;;;;;22.73;51.06;101550.66;5080333;28;45616;-77
2021/07/09 10:50:35;;;;;;;;;7.00;6.75;;;;;22.81;50.77;101555.19;5080763;28;45540;-78
2021/07/09 10:53:31;;;;;;;;;1.25;1.00;;;;;22.87;51.05;101557.19;5077592;28;46356;-79
2021/07/09 10:56:13;;;;;;;;;5.25;5.25;;;;;22.90;50.45;101551.50;5014575;28;45664;-80
2021/07/09 10:58:45;;;;;;;;;5.00;4.50;;;;;22.90;50.15;101560.38;5014457;28;45629;-80
2021/07/09 11:01:12;;;;;;;;;6.50;5.00;;;;;22.78;50.36;101534.16;5014332;28;46392;-80
2021/07/09 11:03:49;;;;;;;;;6.00;5.00;;;;;22.86;50.62;101542.16;5014587;28;46008;-79
2021/07/09 11:06:19;;;;;;;;;5.50;4.25;;;;;22.90;49.88;101546.16;5014335;28;45676;-79
2021/07/09 11:08:48;;;;;;;;;7.00;6.25;;;;;22.91;49.85;101543.34;5011347;28;45951;-79
2021/07/09 11:11:28;;;;;;;;;5.00;5.00;;;;;22.89;50.36;101529.28;5013980;28;47566;-79
2021/07/09 11:13:57;;;;;;;;;7.00;6.00;;;;;22.92;49.78;101544.16;5014193;28;46673;-79
2021/07/09 11:16:30;;;;;;;;;8.00;8.00;;;;;22.94;50.29;101526.94;5014113;28;45688;-81
2021/07/09 11:18:59;;;;;;;;;7.00;6.75;;;;;22.99;49.80;101534.50;5014242;28;45884;-78
2021/07/09 11:24:56;;;;;;;;;6.00;5.50;;;;;23.00;49.83;101504.91;5013879;28;45717;-79
2021/07/09 11:27:24;;;;;;;;;6.25;6.00;;;;;23.09;49.90;101512.94;5013927;28;45887;-80
2021/07/09 11:29:50;;;;;;;;;5.50;5.25;;;;;23.07;49.71;101510.41;5014008;28;45592;-81
2021/07/09 11:32:21;;;;;;;;;7.50;6.00;;;;;23.15;49.34;101507.75;5032560;28;46392;-81
2021/07/09 11:34:57;;;;;;;;;5.25;5.00;;;;;23.17;49.43;101511.06;5075049;28;45968;-80
2021/07/09 11:40:44;;;;;;;;;6.00;6.00;;;;;23.24;49.21;101509.41;5075139;28;45549;-78
2021/07/09 11:43:10;;;;;;;;;6.00;5.50;;;;;23.27;48.83;101503.69;5075187;28;45560;-77
2021/07/09 11:45:35;;;;;;;;;6.25;6.00;;;;;23.31;49.18;101498.88;5056905;28;46983;-79
2021/07/09 11:48:01;;;;;;;;;4.00;4.00;;;;;23.36;49.30;101500.03;5057026;28;45802;-77
2021/07/09 11:50:27;;;;;;;;;8.50;7.00;;;;;23.38;48.68;101495.31;5075266;28;45677;-78
2021/07/09 11:56:15;;;;;;;;;8.00;6.75;;;;;23.36;48.52;101489.31;5075581;28;46166;-78
2021/07/09 11:58:41;;;;;;;;;5.00;5.00;;;;;23.44;48.55;101493.81;5075780;28;45688;-79
2021/07/09 12:01:18;;;;;;;;;6.00;6.00;;;;;23.43;48.50;101484.94;5075742;28;45761;-79
2021/07/09 12:03:48;;;;;;;;;5.00;5.00;;;;;23.51;48.34;101484.13;5075477;28;45571;-78
2021/07/09 12:06:20;;;;;;;;;6.00;5.00;;;;;23.55;47.92;101477.41;5075266;28;46578;-79
2021/07/09 12:12:07;;;;;;;;;4.25;4.25;;;;;23.50;48.07;101469.06;5075298;28;45549;-79
2021/07/09 12:15:02;;;;;;;;;6.50;6.50;;;;;23.50;48.25;101460.22;5075291;28;45642;-80
2021/07/09 12:17:31;;;;;;;;;5.75;5.00;;;;;23.51;47.83;101469.91;5074934;28;46416;-78
2021/07/09 12:20:02;;;;;;;;;4.00;4.00;;;;;23.50;47.42;101462.88;5074399;28;45657;-78
2021/07/09 12:22:34;;;;;;;;;5.00;4.50;;;;;23.41;47.20;101459.38;5056725;28;45821;-80
2021/07/09 12:25:04;;;;;;;;;5.25;4.75;;;;;23.47;47.40;101456.06;5075157;28;46382;-80
2021/07/09 12:27:31;;;;;;;;;6.25;5.25;;;;;23.47;47.66;101452.53;5074606;28;45535;-79
2021/07/09 12:29:57;;;;;;;;;5.25;5.25;;;;;23.48;46.70;101464.94;5074810;28;45622;-79
2021/07/09 12:32:23;;;;;;;;;4.75;4.00;;;;;23.46;46.76;101453.53;5073607;28;45652;-78
2021/07/09 12:34:48;;;;;;;;;5.00;4.00;;;;;23.50;46.98;101457.53;5074817;28;47499;-80
2021/07/09 12:37:23;;;;;;;;;3.50;3.50;;;;;23.54;47.02;101454.34;5074809;28;47438;-78
2021/07/09 12:39:50;;;;;;;;;2.50;2.00;;;;;23.56;46.20;101457.69;5053258;27;45762;-78
2021/07/09 12:42:22;;;;;;;;;3.50;3.50;;;;;23.60;47.17;101458.16;5053305;28;45585;-77
2021/07/09 12:44:54;;;;;;;;;8.75;5.00;;;;;23.58;47.02;101445.00;5054734;28;45931;-78
2021/07/09 12:47:19;;;;;;;;;5.75;5.00;;;;;23.65;46.42;101453.13;5054355;28;47156;-79